createdAt,value
2018-06-21T00:00:56.916Z,2.93
2018-06-21T00:03:24.082Z,2.60
2018-06-21T00:05:51.250Z,2.87
2018-06-21T00:08:18.387Z,2.80
2018-06-21T00:10:45.572Z,3.23
2018-06-21T00:13:12.788Z,3.40
2018-06-21T00:15:39.947Z,2.90
2018-06-21T00:18:07.105Z,3.20
2018-06-21T00:20:34.279Z,3.20
2018-06-21T00:23:01.422Z,3.47
2018-06-21T00:25:28.731Z,3.00
2018-06-21T00:27:56.107Z,3.17
2018-06-21T00:30:23.257Z,3.17
2018-06-21T00:32:50.374Z,3.20
2018-06-21T00:35:17.504Z,2.53
2018-06-21T00:37:44.740Z,2.90
2018-06-21T00:40:11.890Z,3.40
2018-06-21T00:42:39.028Z,2.50
2018-06-21T00:45:08.077Z,3.13
2018-06-21T00:47:35.272Z,3.77
2018-06-21T00:50:02.441Z,3.13
2018-06-21T00:52:29.551Z,3.00
2018-06-21T00:54:57.171Z,3.03
2018-06-21T00:57:24.338Z,2.80
2018-06-21T00:59:51.462Z,2.67
2018-06-21T01:02:18.574Z,2.50
2018-06-21T01:04:45.747Z,2.30
2018-06-21T01:07:12.969Z,2.60
2018-06-21T01:09:40.140Z,2.50
2018-06-21T01:12:07.282Z,2.50
2018-06-21T01:14:34.392Z,2.10
2018-06-21T01:17:05.502Z,2.30
2018-06-21T01:19:32.661Z,2.23
2018-06-21T01:21:59.768Z,2.63
2018-06-21T01:24:27.106Z,2.77
2018-06-21T01:26:54.215Z,2.77
2018-06-21T01:29:21.301Z,4.43
2018-06-21T01:31:48.463Z,4.07
2018-06-21T01:34:15.628Z,4.00
2018-06-21T01:36:42.805Z,3.60
2018-06-21T01:39:10.196Z,3.50
2018-06-21T01:41:37.953Z,3.20
2018-06-21T01:44:05.120Z,3.00
2018-06-21T01:46:32.287Z,3.30
2018-06-21T01:48:59.401Z,3.10
2018-06-21T01:51:26.495Z,2.87
2018-06-21T01:53:53.782Z,2.70
2018-06-21T01:56:21.011Z,3.20
2018-06-21T01:58:48.142Z,2.80
2018-06-21T02:01:15.279Z,2.63
2018-06-21T02:03:42.445Z,2.83
2018-06-21T02:06:09.638Z,2.50
2018-06-21T02:08:36.760Z,2.40
2018-06-21T02:11:03.870Z,2.60
2018-06-21T02:13:30.974Z,2.67
2018-06-21T02:15:58.085Z,2.67
2018-06-21T02:18:25.230Z,2.47
2018-06-21T02:20:52.381Z,2.77
2018-06-21T02:23:19.922Z,2.33
2018-06-21T02:25:47.055Z,2.80
2018-06-21T02:28:14.226Z,2.07
2018-06-21T02:30:41.412Z,2.03
2018-06-21T02:33:08.526Z,1.90
2018-06-21T02:35:35.711Z,1.93
2018-06-21T02:38:02.843Z,2.07
2018-06-21T02:40:29.981Z,2.10
2018-06-21T02:42:57.098Z,2.00
2018-06-21T02:45:24.201Z,1.93
2018-06-21T02:47:51.319Z,1.83
2018-06-21T02:50:18.426Z,2.47
2018-06-21T02:52:45.625Z,2.00
2018-06-21T02:55:12.777Z,2.40
2018-06-21T02:57:39.955Z,2.43
2018-06-21T03:00:07.070Z,2.20
2018-06-21T03:02:34.186Z,2.67
2018-06-21T03:05:01.346Z,2.70
2018-06-21T03:07:28.467Z,2.40
2018-06-21T03:09:55.610Z,3.00
2018-06-21T03:12:23.602Z,3.17
2018-06-21T03:14:51.898Z,2.90
2018-06-21T03:17:19.051Z,2.60
2018-06-21T03:19:46.214Z,2.63
2018-06-21T03:22:13.383Z,2.63
2018-06-21T03:24:40.699Z,3.03
2018-06-21T03:27:08.412Z,3.27
2018-06-21T03:29:35.682Z,3.10
2018-06-21T03:32:02.952Z,3.03
2018-06-21T03:34:30.074Z,2.70
2018-06-21T03:36:57.390Z,3.00
2018-06-21T03:39:24.829Z,3.50
2018-06-21T03:41:51.937Z,3.23
2018-06-21T03:44:19.056Z,2.97
2018-06-21T03:46:46.202Z,3.50
2018-06-21T03:49:13.382Z,3.07
2018-06-21T03:51:40.607Z,3.10
2018-06-21T03:54:07.745Z,3.20
2018-06-21T03:56:34.869Z,3.10
2018-06-21T03:59:01.980Z,2.93
2018-06-21T04:01:29.099Z,2.90
2018-06-21T04:03:56.222Z,3.47
2018-06-21T04:06:23.317Z,3.70
2018-06-21T04:08:50.441Z,3.57
2018-06-21T04:11:17.553Z,3.60
2018-06-21T04:13:44.745Z,3.50
2018-06-21T04:16:11.935Z,3.87
2018-06-21T04:18:39.089Z,3.60
2018-06-21T04:21:07.570Z,3.37
2018-06-21T04:23:34.690Z,3.57
2018-06-21T04:26:01.870Z,3.67
2018-06-21T04:28:29.346Z,3.53
2018-06-21T04:30:56.506Z,3.57
2018-06-21T04:33:23.629Z,3.80
2018-06-21T04:35:50.927Z,3.90
2018-06-21T04:38:18.201Z,3.70
2018-06-21T04:40:45.395Z,3.17
2018-06-21T04:43:12.549Z,3.77
2018-06-21T04:45:40.121Z,3.90
2018-06-21T04:48:07.234Z,4.50
2018-06-21T04:50:34.342Z,3.37
2018-06-21T04:53:01.472Z,3.90
2018-06-21T04:55:28.569Z,4.20
2018-06-21T04:57:55.681Z,4.23
2018-06-21T05:00:22.817Z,4.12
2018-06-21T05:02:49.969Z,3.80
2018-06-21T05:05:17.095Z,3.33
2018-06-21T05:07:44.247Z,3.65
2018-06-21T05:10:11.410Z,3.47
2018-06-21T05:12:38.645Z,3.75
2018-06-21T05:15:05.801Z,3.58
2018-06-21T05:17:33.376Z,3.27
2018-06-21T05:20:00.478Z,3.55
2018-06-21T05:22:27.594Z,3.47
2018-06-21T05:24:54.705Z,3.33
2018-06-21T05:27:21.860Z,3.52
2018-06-21T05:29:49.004Z,3.17
2018-06-21T05:32:16.190Z,3.37
2018-06-21T05:34:43.342Z,3.80
2018-06-21T05:37:10.534Z,3.40
2018-06-21T05:39:37.662Z,3.90
2018-06-21T05:42:04.801Z,3.67
2018-06-21T05:44:31.938Z,4.65
2018-06-21T05:46:59.038Z,3.70
2018-06-21T05:49:26.178Z,4.08
2018-06-21T05:51:53.289Z,3.52
2018-06-21T05:54:20.398Z,4.50
2018-06-21T05:56:47.510Z,3.50
2018-06-21T05:59:14.690Z,4.17
2018-06-21T06:01:41.883Z,3.75
2018-06-21T06:04:11.033Z,3.75
2018-06-21T06:06:38.165Z,4.45
2018-06-21T06:09:07.082Z,3.77
2018-06-21T06:11:34.186Z,3.75
2018-06-21T06:14:01.317Z,3.40
2018-06-21T06:16:28.474Z,3.80
2018-06-21T06:18:55.592Z,3.67
2018-06-21T06:21:22.717Z,3.67
2018-06-21T06:23:56.693Z,3.47
2018-06-21T06:26:23.925Z,3.80
2018-06-21T06:28:51.296Z,3.98
2018-06-21T06:31:18.425Z,3.85
2018-06-21T06:33:45.946Z,3.62
2018-06-21T06:36:13.119Z,3.90
2018-06-21T06:38:40.290Z,3.40
2018-06-21T06:41:07.595Z,4.03
2018-06-21T06:43:34.702Z,3.90
2018-06-21T06:46:01.800Z,3.77
2018-06-21T06:48:28.942Z,4.08
2018-06-21T06:50:56.484Z,4.40
2018-06-21T06:53:23.732Z,3.27
2018-06-21T06:55:50.859Z,4.08
2018-06-21T06:58:17.977Z,3.58
2018-06-21T07:00:45.119Z,3.83
2018-06-21T07:03:12.320Z,3.17
2018-06-21T07:05:39.544Z,3.35
2018-06-21T07:08:06.709Z,3.05
2018-06-21T07:10:33.811Z,3.20
2018-06-21T07:13:00.922Z,3.10
2018-06-21T07:15:28.045Z,3.20
2018-06-21T07:17:55.162Z,3.33
2018-06-21T07:20:22.350Z,3.10
2018-06-21T07:22:49.418Z,2.50
2018-06-21T07:25:16.600Z,2.87
2018-06-21T07:27:43.784Z,2.50
2018-06-21T07:30:11.114Z,2.87
2018-06-21T07:32:38.231Z,2.60
2018-06-21T07:35:05.511Z,3.00
2018-06-21T07:37:32.621Z,2.60
2018-06-21T07:39:59.761Z,2.35
2018-06-21T07:42:27.000Z,2.37
2018-06-21T07:44:54.092Z,2.47
2018-06-21T07:47:21.226Z,2.00
2018-06-21T07:49:48.329Z,2.20
2018-06-21T07:52:15.534Z,2.30
2018-06-21T07:54:42.722Z,2.17
2018-06-21T07:57:09.894Z,2.10
2018-06-21T07:59:37.051Z,2.00
2018-06-21T08:02:04.101Z,2.47
2018-06-21T08:04:31.234Z,1.70
2018-06-21T08:06:58.359Z,2.08
2018-06-21T08:09:25.573Z,1.90
2018-06-21T08:11:52.673Z,1.67
2018-06-21T08:14:19.801Z,1.92
2018-06-21T08:16:46.960Z,1.60
2018-06-21T08:19:14.190Z,1.50
2018-06-21T08:21:41.349Z,1.50
2018-06-21T08:24:08.875Z,1.20
2018-06-21T08:26:35.965Z,1.40
2018-06-21T08:29:03.085Z,1.57
2018-06-21T08:31:30.206Z,1.80
2018-06-21T08:33:57.353Z,1.50
2018-06-21T08:36:24.453Z,1.60
2018-06-21T08:38:51.610Z,1.52
2018-06-21T08:41:18.768Z,1.32
2018-06-21T08:43:45.938Z,1.60
2018-06-21T08:46:13.127Z,1.72
2018-06-21T08:48:40.322Z,1.92
2018-06-21T08:51:07.481Z,1.90
2018-06-21T08:53:34.623Z,2.10
2018-06-21T08:56:01.750Z,1.85
2018-06-21T08:58:28.924Z,1.60
2018-06-21T09:00:55.981Z,1.90
2018-06-21T09:03:23.298Z,2.00
2018-06-21T09:05:50.492Z,1.70
2018-06-21T09:08:17.677Z,1.75
2018-06-21T09:10:44.827Z,1.87
2018-06-21T09:13:12.030Z,1.80
2018-06-21T09:15:39.154Z,1.12
2018-06-21T09:18:06.283Z,1.80
2018-06-21T09:20:33.457Z,1.82
2018-06-21T09:23:00.573Z,1.92
2018-06-21T09:25:27.702Z,1.98
2018-06-21T09:27:54.818Z,1.57
2018-06-21T09:30:21.954Z,1.92
2018-06-21T09:32:49.081Z,2.45
2018-06-21T09:35:16.207Z,2.27
2018-06-21T09:37:48.931Z,2.30
2018-06-21T09:40:21.997Z,2.22
2018-06-21T09:42:54.829Z,2.10
2018-06-21T09:45:27.769Z,1.67
2018-06-21T09:48:01.446Z,1.72
2018-06-21T09:50:28.601Z,1.77
2018-06-21T09:52:55.701Z,2.40
2018-06-21T09:55:22.829Z,2.10
2018-06-21T09:57:50.009Z,2.40
2018-06-21T10:00:22.880Z,2.25
2018-06-21T10:02:50.016Z,2.20
2018-06-21T10:05:17.265Z,2.40
2018-06-21T10:07:44.457Z,2.17
2018-06-21T10:10:11.790Z,2.20
2018-06-21T10:12:39.462Z,2.50
2018-06-21T10:15:06.566Z,2.33
2018-06-21T10:17:33.713Z,2.62
2018-06-21T10:20:00.842Z,2.80
2018-06-21T10:22:27.989Z,2.90
2018-06-21T10:24:55.101Z,2.83
2018-06-21T10:27:22.292Z,2.90
2018-06-21T10:29:49.413Z,3.20
2018-06-21T10:32:16.572Z,2.83
2018-06-21T10:34:43.723Z,3.23
2018-06-21T10:37:10.920Z,2.98
2018-06-21T10:39:38.034Z,3.50
2018-06-21T10:42:05.279Z,3.57
2018-06-21T10:44:32.376Z,3.73
2018-06-21T10:46:59.485Z,3.93
2018-06-21T10:49:26.601Z,4.50
2018-06-21T10:51:53.722Z,4.57
2018-06-21T10:54:20.837Z,3.80
2018-06-21T10:56:48.046Z,4.17
2018-06-21T10:59:15.204Z,4.60
2018-06-21T11:01:42.396Z,4.10
2018-06-21T11:04:10.012Z,4.30
2018-06-21T11:06:37.225Z,4.50
2018-06-21T11:09:06.587Z,4.03
2018-06-21T11:11:33.709Z,4.77
2018-06-21T11:14:00.824Z,4.20
2018-06-21T11:16:27.950Z,4.50
2018-06-21T11:18:55.033Z,4.20
2018-06-21T11:21:22.161Z,3.73
2018-06-21T11:23:49.285Z,3.70
2018-06-21T11:26:16.405Z,4.70
2018-06-21T11:28:43.577Z,4.53
2018-06-21T11:31:10.754Z,4.03
2018-06-21T11:33:37.874Z,3.97
2018-06-21T11:36:04.966Z,3.58
2018-06-21T11:38:32.079Z,3.90
2018-06-21T11:40:59.176Z,3.35
2018-06-21T11:43:26.278Z,3.22
2018-06-21T11:45:53.378Z,3.12
2018-06-21T11:48:20.497Z,3.40
2018-06-21T11:50:47.603Z,3.50
2018-06-21T11:53:14.775Z,2.87
2018-06-21T11:55:41.911Z,2.70
2018-06-21T11:58:09.010Z,2.25
2018-06-21T12:00:36.173Z,2.42
2018-06-21T12:03:03.493Z,2.17
2018-06-21T12:05:30.611Z,2.10
2018-06-21T12:07:57.705Z,1.80
2018-06-21T12:10:24.808Z,1.75
2018-06-21T12:12:51.902Z,1.85
2018-06-21T12:15:18.998Z,2.10
2018-06-21T12:17:46.141Z,1.97
2018-06-21T12:20:13.290Z,1.70
2018-06-21T12:22:40.495Z,1.30
2018-06-21T12:25:07.630Z,1.80
2018-06-21T12:27:34.731Z,1.80
2018-06-21T12:30:01.845Z,1.60
2018-06-21T12:32:28.946Z,1.40
2018-06-21T12:34:56.045Z,1.55
2018-06-21T12:37:23.145Z,1.45
2018-06-21T12:39:51.054Z,1.70
2018-06-21T12:42:18.150Z,1.33
2018-06-21T12:44:45.309Z,1.23
2018-06-21T12:47:12.455Z,1.40
2018-06-21T12:49:39.590Z,1.30
2018-06-21T12:52:06.723Z,1.07
2018-06-21T12:54:33.860Z,1.70
2018-06-21T12:57:00.951Z,1.60
2018-06-21T12:59:28.784Z,1.60
2018-06-21T13:01:56.055Z,1.83
2018-06-21T13:04:23.161Z,1.40
2018-06-21T13:06:50.269Z,1.70
2018-06-21T13:09:29.035Z,1.40
2018-06-21T13:12:35.386Z,1.50
2018-06-21T13:15:02.533Z,1.30
2018-06-21T13:17:30.716Z,1.80
2018-06-21T13:19:58.904Z,1.67
2018-06-21T13:22:26.581Z,1.40
2018-06-21T13:24:53.743Z,1.37
2018-06-21T13:27:20.850Z,1.87
2018-06-21T13:29:48.037Z,1.30
2018-06-21T13:32:15.192Z,2.23
2018-06-21T13:34:42.380Z,1.67
2018-06-21T13:37:09.544Z,1.20
2018-06-21T13:39:36.646Z,0.87
2018-06-21T13:42:03.995Z,1.03
2018-06-21T13:44:31.260Z,1.83
2018-06-21T13:46:58.732Z,1.27
2018-06-21T13:49:26.007Z,1.40
2018-06-21T13:51:53.099Z,1.00
2018-06-21T13:54:20.202Z,1.27
2018-06-21T13:56:47.492Z,1.33
2018-06-21T13:59:15.271Z,1.33
2018-06-21T14:01:42.499Z,1.47
2018-06-21T14:04:09.657Z,1.37
2018-06-21T14:06:36.770Z,1.83
2018-06-21T14:09:06.005Z,1.50
2018-06-21T14:11:33.133Z,1.40
2018-06-21T14:14:00.250Z,1.40
2018-06-21T14:16:27.402Z,1.20
2018-06-21T14:18:54.673Z,1.27
2018-06-21T14:21:21.794Z,1.13
2018-06-21T14:23:48.906Z,1.40
2018-06-21T14:26:16.043Z,1.30
2018-06-21T14:28:43.242Z,1.23
2018-06-21T14:31:10.426Z,1.40
2018-06-21T14:33:37.551Z,1.50
2018-06-21T14:36:04.702Z,1.57
2018-06-21T14:38:31.804Z,1.80
2018-06-21T14:40:59.074Z,1.20
2018-06-21T14:43:26.173Z,1.67
2018-06-21T14:45:53.312Z,1.53
2018-06-21T14:48:20.639Z,1.70
2018-06-21T14:50:47.746Z,1.83
2018-06-21T14:53:14.934Z,1.30
2018-06-21T14:55:42.077Z,1.20
2018-06-21T14:58:09.238Z,1.60
2018-06-21T15:00:36.301Z,1.40
2018-06-21T15:03:03.439Z,1.53
2018-06-21T15:05:30.565Z,1.43
2018-06-21T15:07:57.667Z,1.30
2018-06-21T15:10:24.761Z,1.77
2018-06-21T15:12:51.877Z,1.50
2018-06-21T15:15:19.028Z,1.53
2018-06-21T15:17:46.154Z,1.50
2018-06-21T15:20:13.393Z,1.57
2018-06-21T15:22:40.528Z,1.43
2018-06-21T15:25:07.614Z,1.53
2018-06-21T15:27:34.731Z,2.40
2018-06-21T15:30:01.857Z,1.33
2018-06-21T15:32:28.957Z,1.30
2018-06-21T15:34:56.055Z,1.47
2018-06-21T15:37:23.154Z,1.57
2018-06-21T15:39:50.491Z,1.03
2018-06-21T15:42:17.605Z,1.33
2018-06-21T15:44:44.772Z,1.27
2018-06-21T15:47:11.997Z,1.07
2018-06-21T15:49:39.097Z,1.10
2018-06-21T15:52:06.305Z,1.23
2018-06-21T15:54:33.413Z,1.90
2018-06-21T15:57:00.561Z,1.13
2018-06-21T15:59:27.714Z,1.60
2018-06-21T16:01:54.845Z,1.53
2018-06-21T16:04:21.978Z,1.23
2018-06-21T16:06:49.162Z,1.23
2018-06-21T16:09:16.326Z,1.10
2018-06-21T16:11:43.460Z,1.40
2018-06-21T16:14:11.027Z,1.00
2018-06-21T16:16:38.215Z,0.87
2018-06-21T16:19:05.337Z,1.50
2018-06-21T16:21:32.453Z,1.00
2018-06-21T16:23:59.537Z,1.60
2018-06-21T16:26:26.645Z,1.10
2018-06-21T16:28:53.747Z,1.10
2018-06-21T16:31:20.866Z,1.30
2018-06-21T16:33:48.015Z,1.07
2018-06-21T16:36:15.152Z,1.27
2018-06-21T16:38:42.449Z,1.03
2018-06-21T16:41:09.712Z,1.40
2018-06-21T16:43:36.849Z,1.40
2018-06-21T16:46:04.276Z,1.80
2018-06-21T16:48:31.385Z,1.47
2018-06-21T16:50:58.495Z,1.50
2018-06-21T16:53:25.646Z,1.00
2018-06-21T16:55:53.709Z,1.23
2018-06-21T16:58:21.622Z,1.40
2018-06-21T17:00:48.815Z,1.10
2018-06-21T17:03:15.945Z,1.27
2018-06-21T17:05:43.067Z,1.77
2018-06-21T17:08:11.095Z,1.07
2018-06-21T17:10:38.821Z,1.90
2018-06-21T17:13:05.962Z,1.03
2018-06-21T17:15:33.125Z,1.67
2018-06-21T17:18:00.274Z,1.33
2018-06-21T17:20:27.381Z,1.80
2018-06-21T17:22:54.515Z,1.50
2018-06-21T17:25:21.644Z,1.60
2018-06-21T17:27:48.936Z,1.70
2018-06-21T17:30:16.133Z,2.53
2018-06-21T17:32:43.206Z,1.63
2018-06-21T17:35:10.347Z,1.63
2018-06-21T17:37:37.462Z,1.00
2018-06-21T17:40:04.637Z,1.50
2018-06-21T17:42:31.872Z,1.20
2018-06-21T17:44:58.982Z,1.33
2018-06-21T17:47:26.185Z,1.20
2018-06-21T17:49:53.409Z,1.27
2018-06-21T17:52:20.664Z,1.57
2018-06-21T17:54:47.864Z,1.13
2018-06-21T17:57:15.091Z,1.30
2018-06-21T17:59:42.333Z,1.30
2018-06-21T18:02:09.459Z,1.90
2018-06-21T18:04:36.570Z,1.60
2018-06-21T18:07:03.726Z,1.60
2018-06-21T18:09:30.832Z,1.20
2018-06-21T18:11:57.967Z,1.97
2018-06-21T18:14:25.126Z,1.30
2018-06-21T18:16:52.305Z,1.23
2018-06-21T18:19:19.474Z,1.40
2018-06-21T18:21:46.565Z,1.37
2018-06-21T18:24:13.730Z,1.47
2018-06-21T18:26:40.848Z,1.10
2018-06-21T18:29:08.046Z,1.50
2018-06-21T18:31:35.311Z,1.40
2018-06-21T18:34:02.428Z,0.97
2018-06-21T18:36:29.553Z,1.10
2018-06-21T18:38:56.736Z,1.40
2018-06-21T18:41:23.943Z,1.10
2018-06-21T18:43:51.214Z,1.40
2018-06-21T18:46:18.402Z,1.50
2018-06-21T18:48:45.523Z,1.03
2018-06-21T18:51:12.673Z,1.23
2018-06-21T18:53:39.814Z,1.37
2018-06-21T18:56:06.918Z,0.90
2018-06-21T18:58:34.025Z,1.00
2018-06-21T19:01:01.119Z,1.50
2018-06-21T19:03:28.282Z,1.37
2018-06-21T19:05:55.420Z,1.33
2018-06-21T19:08:28.292Z,1.13
2018-06-21T19:11:01.343Z,1.40
2018-06-21T19:13:28.474Z,0.80
2018-06-21T19:15:55.619Z,1.23
2018-06-21T19:18:22.823Z,1.27
2018-06-21T19:20:49.986Z,1.73
2018-06-21T19:23:17.124Z,1.30
2018-06-21T19:25:44.254Z,1.00
2018-06-21T19:28:11.335Z,1.60
2018-06-21T19:30:38.485Z,1.10
2018-06-21T19:33:05.856Z,1.17
2018-06-21T19:35:32.962Z,1.20
2018-06-21T19:38:00.081Z,1.23
2018-06-21T19:40:27.210Z,1.03
2018-06-21T19:42:54.473Z,1.27
2018-06-21T19:45:21.719Z,1.17
2018-06-21T19:47:49.019Z,1.20
2018-06-21T19:50:16.141Z,1.30
2018-06-21T19:52:43.321Z,1.17
2018-06-21T19:55:10.769Z,1.00
2018-06-21T19:57:38.257Z,1.63
2018-06-21T20:00:05.969Z,1.27
2018-06-21T20:02:38.718Z,1.27
2018-06-21T20:05:05.854Z,1.30
2018-06-21T20:07:33.032Z,1.27
2018-06-21T20:10:00.170Z,1.27
2018-06-21T20:12:27.355Z,1.30
2018-06-21T20:14:54.527Z,1.33
2018-06-21T20:17:21.704Z,1.50
2018-06-21T20:19:54.696Z,1.63
2018-06-21T20:22:21.852Z,1.53
2018-06-21T20:24:49.023Z,1.00
2018-06-21T20:27:16.204Z,1.33
2018-06-21T20:29:43.416Z,1.13
2018-06-21T20:32:10.530Z,1.40
2018-06-21T20:34:37.655Z,1.40
2018-06-21T20:37:09.377Z,1.40
2018-06-21T20:39:36.509Z,1.53
2018-06-21T20:42:03.635Z,1.30
2018-06-21T20:44:30.781Z,1.40
2018-06-21T20:46:57.894Z,1.43
2018-06-21T20:49:25.055Z,1.20
2018-06-21T20:51:52.185Z,1.10
2018-06-21T20:54:19.648Z,1.17
2018-06-21T20:56:46.883Z,1.10
2018-06-21T20:59:13.938Z,1.30
2018-06-21T21:01:41.941Z,1.03
2018-06-21T21:04:09.046Z,1.40
2018-06-21T21:06:36.176Z,1.43
2018-06-21T21:09:05.608Z,1.40
2018-06-21T21:11:32.768Z,1.20
2018-06-21T21:13:59.929Z,1.30
2018-06-21T21:16:27.071Z,1.50
2018-06-21T21:18:54.245Z,1.40
2018-06-21T21:21:21.465Z,1.40
2018-06-21T21:23:48.649Z,1.40
2018-06-21T21:26:15.787Z,1.70
2018-06-21T21:28:42.969Z,1.50
2018-06-21T21:31:10.071Z,1.23
2018-06-21T21:33:37.205Z,1.20
2018-06-21T21:36:04.699Z,1.70
2018-06-21T21:38:38.530Z,1.20
2018-06-21T21:41:06.418Z,1.40
2018-06-21T21:43:33.537Z,1.17
2018-06-21T21:46:00.634Z,1.20
2018-06-21T21:48:27.737Z,1.70
2018-06-21T21:50:54.873Z,1.10
2018-06-21T21:53:22.065Z,1.13
2018-06-21T21:55:49.294Z,1.10
2018-06-21T21:58:16.442Z,1.00
2018-06-21T22:00:45.991Z,1.30
2018-06-21T22:03:13.294Z,1.00
2018-06-21T22:05:40.609Z,1.40
2018-06-21T22:08:08.060Z,1.10
2018-06-21T22:10:35.205Z,1.17
2018-06-21T22:13:02.403Z,1.00
2018-06-21T22:15:29.462Z,1.23
2018-06-21T22:17:56.906Z,1.70
2018-06-21T22:20:24.180Z,1.10
2018-06-21T22:22:51.370Z,1.23
2018-06-21T22:25:18.526Z,1.30
2018-06-21T22:27:45.631Z,1.10
2018-06-21T22:30:12.958Z,1.40
2018-06-21T22:32:40.075Z,1.00
2018-06-21T22:35:07.231Z,1.00
2018-06-21T22:37:34.370Z,1.47
2018-06-21T22:40:01.465Z,1.43
2018-06-21T22:42:28.705Z,1.20
2018-06-21T22:44:55.833Z,1.10
2018-06-21T22:47:22.994Z,1.10
2018-06-21T22:49:50.321Z,1.30
2018-06-21T22:52:17.437Z,1.37
2018-06-21T22:54:44.546Z,1.67
2018-06-21T22:57:11.685Z,1.07
2018-06-21T22:59:38.802Z,1.20
2018-06-21T23:02:06.106Z,1.20
2018-06-21T23:04:33.236Z,1.63
2018-06-21T23:07:00.416Z,1.40
2018-06-21T23:09:27.579Z,1.30
2018-06-21T23:11:54.718Z,1.33
2018-06-21T23:14:21.889Z,1.60
2018-06-21T23:16:49.770Z,1.33
2018-06-21T23:19:25.649Z,1.40
2018-06-21T23:21:53.014Z,1.50
2018-06-21T23:24:20.190Z,1.07
2018-06-21T23:26:47.402Z,1.43
2018-06-21T23:29:14.483Z,1.27
2018-06-21T23:31:41.613Z,1.57
2018-06-21T23:34:08.730Z,1.17
2018-06-21T23:36:35.858Z,1.00
2018-06-21T23:39:04.825Z,1.43
2018-06-21T23:41:31.999Z,1.30
2018-06-21T23:43:59.110Z,0.90
2018-06-21T23:46:26.223Z,1.53
2018-06-21T23:48:53.397Z,1.53
2018-06-21T23:51:20.533Z,1.87
2018-06-21T23:53:47.696Z,1.63
2018-06-21T23:56:14.810Z,1.30
2018-06-21T23:58:41.920Z,1.37
